sensor_id;sensor_type;location;lat;lon;timestamp;pressure;altitude;pressure_sealevel;temperature;humidity
74936;BME280;63501;55.570;37.488;2023-05-17T00:01:58;99604.13;;;13.19;48.19
74936;BME280;63501;55.570;37.488;2023-05-17T00:04:25;99609.28;;;13.17;48.80
74936;BME280;63501;55.570;37.488;2023-05-17T00:06:52;99598.59;;;13.15;48.59
74936;BME280;63501;55.570;37.488;2023-05-17T00:09:19;99596.22;;;13.14;48.47
74936;BME280;63501;55.570;37.488;2023-05-17T00:11:46;99598.22;;;13.13;48.73
74936;BME280;63501;55.570;37.488;2023-05-17T00:14:15;99596.63;;;13.12;48.75
74936;BME280;63501;55.570;37.488;2023-05-17T00:16:42;99597.03;;;13.11;48.55
74936;BME280;63501;55.570;37.488;2023-05-17T00:19:09;99604.56;;;13.10;48.98
74936;BME280;63501;55.570;37.488;2023-05-17T00:21:36;99605.78;;;13.09;48.67
74936;BME280;63501;55.570;37.488;2023-05-17T00:24:04;99596.25;;;13.07;48.87
74936;BME280;63501;55.570;37.488;2023-05-17T00:26:31;99606.97;;;13.05;49.17
74936;BME280;63501;55.570;37.488;2023-05-17T00:28:58;99610.94;;;13.04;49.14
74936;BME280;63501;55.570;37.488;2023-05-17T00:31:26;99614.94;;;13.03;48.75
74936;BME280;63501;55.570;37.488;2023-05-17T00:33:53;99617.28;;;13.01;48.61
74936;BME280;63501;55.570;37.488;2023-05-17T00:36:20;99621.28;;;12.96;49.10
74936;BME280;63501;55.570;37.488;2023-05-17T00:38:47;99616.56;;;12.93;48.93
74936;BME280;63501;55.570;37.488;2023-05-17T00:41:14;99616.97;;;12.88;49.48
74936;BME280;63501;55.570;37.488;2023-05-17T00:43:42;99614.19;;;12.84;49.53
74936;BME280;63501;55.570;37.488;2023-05-17T00:46:09;99617.00;;;12.81;49.13
74936;BME280;63501;55.570;37.488;2023-05-17T00:48:38;99618.56;;;12.78;49.69
74936;BME280;63501;55.570;37.488;2023-05-17T00:51:05;99629.28;;;12.76;49.54
74936;BME280;63501;55.570;37.488;2023-05-17T00:53:32;99628.50;;;12.76;49.29
74936;BME280;63501;55.570;37.488;2023-05-17T00:56:01;99625.75;;;12.72;49.85
74936;BME280;63501;55.570;37.488;2023-05-17T00:58:29;99638.44;;;12.69;49.40
74936;BME280;63501;55.570;37.488;2023-05-17T01:00:57;99627.75;;;12.64;49.68
74936;BME280;63501;55.570;37.488;2023-05-17T01:03:26;99626.16;;;12.60;49.62
74936;BME280;63501;55.570;37.488;2023-05-17T01:05:54;99630.56;;;12.54;49.48
74936;BME280;63501;55.570;37.488;2023-05-17T01:08:21;99632.94;;;12.52;49.83
74936;BME280;63501;55.570;37.488;2023-05-17T01:10:53;99632.94;;;12.48;49.90
74936;BME280;63501;55.570;37.488;2023-05-17T01:13:26;99632.94;;;12.44;50.04
74936;BME280;63501;55.570;37.488;2023-05-17T01:16:02;99631.78;;;12.42;50.23
74936;BME280;63501;55.570;37.488;2023-05-17T01:18:35;99632.56;;;12.39;49.86
74936;BME280;63501;55.570;37.488;2023-05-17T01:21:15;99640.09;;;12.35;50.49
74936;BME280;63501;55.570;37.488;2023-05-17T01:23:50;99639.69;;;12.33;50.65
74936;BME280;63501;55.570;37.488;2023-05-17T01:26:34;99643.28;;;12.30;50.98
74936;BME280;63501;55.570;37.488;2023-05-17T01:29:04;99636.13;;;12.29;50.85
74936;BME280;63501;55.570;37.488;2023-05-17T01:31:33;99640.88;;;12.28;50.72
74936;BME280;63501;55.570;37.488;2023-05-17T01:34:01;99643.28;;;12.26;51.32
74936;BME280;63501;55.570;37.488;2023-05-17T01:36:31;99643.28;;;12.26;50.94
74936;BME280;63501;55.570;37.488;2023-05-17T01:38:58;99656.34;;;12.26;51.08
74936;BME280;63501;55.570;37.488;2023-05-17T01:41:31;99644.88;;;12.24;51.00
74936;BME280;63501;55.570;37.488;2023-05-17T01:44:04;99648.44;;;12.21;51.24
74936;BME280;63501;55.570;37.488;2023-05-17T01:46:38;99645.66;;;12.21;51.27
74936;BME280;63501;55.570;37.488;2023-05-17T01:49:10;99656.75;;;12.21;50.88
74936;BME280;63501;55.570;37.488;2023-05-17T01:51:45;99650.41;;;12.20;51.25
74936;BME280;63501;55.570;37.488;2023-05-17T01:54:14;99655.94;;;12.20;51.17
74936;BME280;63501;55.570;37.488;2023-05-17T01:56:51;99657.16;;;12.19;51.33
74936;BME280;63501;55.570;37.488;2023-05-17T01:59:19;99657.53;;;12.17;51.23
74936;BME280;63501;55.570;37.488;2023-05-17T02:01:51;99660.72;;;12.20;50.99
74936;BME280;63501;55.570;37.488;2023-05-17T02:04:19;99661.50;;;12.20;51.09
74936;BME280;63501;55.570;37.488;2023-05-17T02:06:46;99663.06;;;12.21;51.31
74936;BME280;63501;55.570;37.488;2023-05-17T02:09:13;99664.66;;;12.22;51.08
74936;BME280;63501;55.570;37.488;2023-05-17T02:11:40;99658.72;;;12.24;51.13
74936;BME280;63501;55.570;37.488;2023-05-17T02:14:08;99664.25;;;12.27;51.46
74936;BME280;63501;55.570;37.488;2023-05-17T02:16:35;99656.34;;;12.29;51.25
74936;BME280;63501;55.570;37.488;2023-05-17T02:19:02;99662.28;;;12.31;51.32
74936;BME280;63501;55.570;37.488;2023-05-17T02:21:29;99657.91;;;12.34;50.98
74936;BME280;63501;55.570;37.488;2023-05-17T02:23:56;99650.78;;;12.36;50.69
74936;BME280;63501;55.570;37.488;2023-05-17T02:26:23;99659.91;;;12.40;51.11
74936;BME280;63501;55.570;37.488;2023-05-17T02:28:50;99656.69;;;12.45;51.01
74936;BME280;63501;55.570;37.488;2023-05-17T02:31:19;99663.81;;;12.50;51.14
74936;BME280;63501;55.570;37.488;2023-05-17T02:33:46;99660.66;;;12.55;51.15
74936;BME280;63501;55.570;37.488;2023-05-17T02:36:13;99665.41;;;12.58;51.09
74936;BME280;63501;55.570;37.488;2023-05-17T02:38:40;99665.81;;;12.64;50.82
74936;BME280;63501;55.570;37.488;2023-05-17T02:41:07;99661.41;;;12.70;50.69
74936;BME280;63501;55.570;37.488;2023-05-17T02:43:34;99659.44;;;12.74;50.53
74936;BME280;63501;55.570;37.488;2023-05-17T02:46:01;99665.38;;;12.80;50.21
74936;BME280;63501;55.570;37.488;2023-05-17T02:48:29;99663.75;;;12.86;50.55
74936;BME280;63501;55.570;37.488;2023-05-17T02:50:57;99669.28;;;12.93;50.19
74936;BME280;63501;55.570;37.488;2023-05-17T02:53:23;99669.66;;;12.98;50.15
74936;BME280;63501;55.570;37.488;2023-05-17T02:55:51;99674.75;;;13.07;50.37
74936;BME280;63501;55.570;37.488;2023-05-17T02:58:18;99681.09;;;13.15;49.79
74936;BME280;63501;55.570;37.488;2023-05-17T03:00:45;99668.78;;;13.23;49.51
74936;BME280;63501;55.570;37.488;2023-05-17T03:03:12;99675.91;;;13.31;49.71
74936;BME280;63501;55.570;37.488;2023-05-17T03:05:40;99670.28;;;13.38;49.26
74936;BME280;63501;55.570;37.488;2023-05-17T03:08:07;99677.38;;;13.46;49.08
74936;BME280;63501;55.570;37.488;2023-05-17T03:10:34;99665.06;;;13.55;49.03
74936;BME280;63501;55.570;37.488;2023-05-17T03:13:01;99675.31;;;13.65;48.88
74936;BME280;63501;55.570;37.488;2023-05-17T03:15:28;99678.03;;;13.72;48.99
74936;BME280;63501;55.570;37.488;2023-05-17T03:17:55;99672.84;;;13.81;48.59
74936;BME280;63501;55.570;37.488;2023-05-17T03:20:23;99665.22;;;13.89;48.09
74936;BME280;63501;55.570;37.488;2023-05-17T03:22:51;99665.16;;;13.96;48.12
74936;BME280;63501;55.570;37.488;2023-05-17T03:25:18;99667.91;;;14.03;48.68
74936;BME280;63501;55.570;37.488;2023-05-17T03:27:46;99668.63;;;14.11;48.42
74936;BME280;63501;55.570;37.488;2023-05-17T03:30:13;99667.78;;;14.17;48.38
74936;BME280;63501;55.570;37.488;2023-05-17T03:32:40;99671.28;;;14.25;48.17
74936;BME280;63501;55.570;37.488;2023-05-17T03:35:08;99666.88;;;14.31;48.17
74936;BME280;63501;55.570;37.488;2023-05-17T03:37:35;99668.41;;;14.36;47.33
74936;BME280;63501;55.570;37.488;2023-05-17T03:40:04;99678.28;;;14.44;48.17
74936;BME280;63501;55.570;37.488;2023-05-17T03:42:31;99669.47;;;14.52;47.82
74936;BME280;63501;55.570;37.488;2023-05-17T03:44:59;99679.31;;;14.61;47.33
74936;BME280;63501;55.570;37.488;2023-05-17T03:47:26;99682.03;;;14.68;46.63
74936;BME280;63501;55.570;37.488;2023-05-17T03:49:53;99679.59;;;14.73;47.29
74936;BME280;63501;55.570;37.488;2023-05-17T03:52:20;99683.91;;;14.78;47.35
74936;BME280;63501;55.570;37.488;2023-05-17T03:54:47;99680.63;;;14.87;47.33
74936;BME280;63501;55.570;37.488;2023-05-17T03:57:15;99683.34;;;14.94;46.05
74936;BME280;63501;55.570;37.488;2023-05-17T03:59:42;99684.09;;;14.98;46.42
74936;BME280;63501;55.570;37.488;2023-05-17T04:02:10;99683.59;;;15.06;46.03
74936;BME280;63501;55.570;37.488;2023-05-17T04:04:37;99685.50;;;15.13;46.92
74936;BME280;63501;55.570;37.488;2023-05-17T04:07:04;99685.00;;;15.22;45.81
74936;BME280;63501;55.570;37.488;2023-05-17T04:09:31;99693.69;;;15.27;46.78
74936;BME280;63501;55.570;37.488;2023-05-17T04:11:59;99692.84;;;15.30;46.62
74936;BME280;63501;55.570;37.488;2023-05-17T04:14:27;99698.72;;;15.40;46.40
74936;BME280;63501;55.570;37.488;2023-05-17T04:16:54;99699.03;;;15.45;45.49
74936;BME280;63501;55.570;37.488;2023-05-17T04:19:21;99699.78;;;15.49;46.36
74936;BME280;63501;55.570;37.488;2023-05-17T04:21:48;99702.03;;;15.58;45.33
74936;BME280;63501;55.570;37.488;2023-05-17T04:24:16;99699.59;;;15.64;45.40
74936;BME280;63501;55.570;37.488;2023-05-17T04:26:43;99697.09;;;15.73;46.25
74936;BME280;63501;55.570;37.488;2023-05-17T04:29:10;99699.81;;;15.76;45.05
74936;BME280;63501;55.570;37.488;2023-05-17T04:31:38;99703.38;;;15.77;45.66
74936;BME280;63501;55.570;37.488;2023-05-17T04:34:06;99706.44;;;15.86;45.03
74936;BME280;63501;55.570;37.488;2023-05-17T04:36:33;99701.84;;;15.99;45.04
74936;BME280;63501;55.570;37.488;2023-05-17T04:39:00;99702.47;;;16.10;45.53
74936;BME280;63501;55.570;37.488;2023-05-17T04:41:27;99703.19;;;16.18;45.28
74936;BME280;63501;55.570;37.488;2023-05-17T04:43:54;99705.84;;;16.25;45.43
74936;BME280;63501;55.570;37.488;2023-05-17T04:46:22;99699.72;;;16.34;45.45
74936;BME280;63501;55.570;37.488;2023-05-17T04:48:50;99696.81;;;16.41;45.14
74936;BME280;63501;55.570;37.488;2023-05-17T04:51:17;99695.84;;;16.51;45.17
74936;BME280;63501;55.570;37.488;2023-05-17T04:53:45;99702.06;;;16.59;44.44
74936;BME280;63501;55.570;37.488;2023-05-17T04:56:12;99696.78;;;16.64;45.12
74936;BME280;63501;55.570;37.488;2023-05-17T04:58:39;99705.06;;;16.72;44.92
74936;BME280;63501;55.570;37.488;2023-05-17T05:01:06;99708.94;;;16.78;44.64
74936;BME280;63501;55.570;37.488;2023-05-17T05:03:33;99707.25;;;16.84;44.63
74936;BME280;63501;55.570;37.488;2023-05-17T05:08:31;99698.66;;;16.95;43.95
74936;BME280;63501;55.570;37.488;2023-05-17T05:10:58;99701.22;;;17.05;44.53
74936;BME280;63501;55.570;37.488;2023-05-17T05:13:25;99698.66;;;17.14;43.66
74936;BME280;63501;55.570;37.488;2023-05-17T05:15:52;99700.03;;;17.26;43.90
74936;BME280;63501;55.570;37.488;2023-05-17T05:18:19;99693.59;;;17.29;43.90
74936;BME280;63501;55.570;37.488;2023-05-17T05:20:47;99698.13;;;17.39;43.83
74936;BME280;63501;55.570;37.488;2023-05-17T05:23:14;99696.34;;;17.49;43.37
74936;BME280;63501;55.570;37.488;2023-05-17T05:25:44;99696.91;;;17.60;43.24
74936;BME280;63501;55.570;37.488;2023-05-17T05:28:11;99697.63;;;17.64;43.15
74936;BME280;63501;55.570;37.488;2023-05-17T05:30:38;99698.41;;;17.65;42.73
74936;BME280;63501;55.570;37.488;2023-05-17T05:33:06;99700.69;;;17.70;42.76
74936;BME280;63501;55.570;37.488;2023-05-17T05:35:33;99698.53;;;17.78;42.60
74936;BME280;63501;55.570;37.488;2023-05-17T05:38:00;99705.56;;;17.86;42.41
74936;BME280;63501;55.570;37.488;2023-05-17T05:40:27;99704.66;;;17.89;42.54
74936;BME280;63501;55.570;37.488;2023-05-17T05:42:55;99706.44;;;17.99;42.13
74936;BME280;63501;55.570;37.488;2023-05-17T05:45:22;99701.38;;;18.10;42.31
74936;BME280;63501;55.570;37.488;2023-05-17T05:47:49;99701.66;;;18.16;42.36
74936;BME280;63501;55.570;37.488;2023-05-17T05:50:16;99705.16;;;18.20;42.19
74936;BME280;63501;55.570;37.488;2023-05-17T05:52:43;99700.69;;;18.22;42.21
74936;BME280;63501;55.570;37.488;2023-05-17T05:55:10;99705.41;;;18.26;42.37
74936;BME280;63501;55.570;37.488;2023-05-17T05:57:37;99702.44;;;18.33;41.81
74936;BME280;63501;55.570;37.488;2023-05-17T06:00:07;99705.03;;;18.40;41.46
74936;BME280;63501;55.570;37.488;2023-05-17T06:02:37;99712.91;;;18.45;41.19
74936;BME280;63501;55.570;37.488;2023-05-17T06:05:04;99701.38;;;18.43;41.17
74936;BME280;63501;55.570;37.488;2023-05-17T06:07:32;99707.50;;;18.38;41.20
74936;BME280;63501;55.570;37.488;2023-05-17T06:09:59;99705.03;;;18.40;40.82
74936;BME280;63501;55.570;37.488;2023-05-17T06:12:26;99701.19;;;18.50;40.87
74936;BME280;63501;55.570;37.488;2023-05-17T06:14:53;99702.94;;;18.60;41.09
74936;BME280;63501;55.570;37.488;2023-05-17T06:17:22;99701.44;;;18.72;41.01
74936;BME280;63501;55.570;37.488;2023-05-17T06:19:49;99712.47;;;18.79;40.48
74936;BME280;63501;55.570;37.488;2023-05-17T06:22:17;99702.41;;;18.82;40.16
74936;BME280;63501;55.570;37.488;2023-05-17T06:24:44;99699.41;;;18.89;39.71
74936;BME280;63501;55.570;37.488;2023-05-17T06:27:11;99704.47;;;18.94;39.45
74936;BME280;63501;55.570;37.488;2023-05-17T06:29:38;99702.44;;;18.94;38.70
74936;BME280;63501;55.570;37.488;2023-05-17T06:32:05;99703.94;;;18.99;38.85
74936;BME280;63501;55.570;37.488;2023-05-17T06:34:34;99711.34;;;19.06;38.24
74936;BME280;63501;55.570;37.488;2023-05-17T06:37:01;99706.88;;;19.08;38.34
74936;BME280;63501;55.570;37.488;2023-05-17T06:39:28;99715.63;;;19.10;37.88
74936;BME280;63501;55.570;37.488;2023-05-17T06:41:55;99711.59;;;19.11;37.65
74936;BME280;63501;55.570;37.488;2023-05-17T06:44:22;99706.88;;;19.08;37.67
74936;BME280;63501;55.570;37.488;2023-05-17T06:46:49;99714.59;;;19.04;37.18
74936;BME280;63501;55.570;37.488;2023-05-17T06:49:16;99706.41;;;18.97;37.36
74936;BME280;63501;55.570;37.488;2023-05-17T06:51:44;99721.97;;;18.98;37.15
74936;BME280;63501;55.570;37.488;2023-05-17T06:54:13;99714.84;;;19.10;37.59
74936;BME280;63501;55.570;37.488;2023-05-17T06:56:41;99709.13;;;19.13;37.36
74936;BME280;63501;55.570;37.488;2023-05-17T06:59:08;99721.56;;;19.12;36.95
74936;BME280;63501;55.570;37.488;2023-05-17T07:01:35;99720.56;;;19.19;36.75
74936;BME280;63501;55.570;37.488;2023-05-17T07:04:02;99718.25;;;19.30;36.48
74936;BME280;63501;55.570;37.488;2023-05-17T07:06:29;99718.50;;;19.36;36.80
74936;BME280;63501;55.570;37.488;2023-05-17T07:08:58;99696.50;;;19.34;36.81
74936;BME280;63501;55.570;37.488;2023-05-17T07:11:25;99725.00;;;19.33;36.03
74936;BME280;63501;55.570;37.488;2023-05-17T07:13:52;99714.00;;;19.25;36.02
74936;BME280;63501;55.570;37.488;2023-05-17T07:16:19;99711.38;;;19.18;35.80
74936;BME280;63501;55.570;37.488;2023-05-17T07:18:46;99714.63;;;19.17;35.75
74936;BME280;63501;55.570;37.488;2023-05-17T07:21:13;99698.38;;;19.24;36.24
74936;BME280;63501;55.570;37.488;2023-05-17T07:23:40;99687.56;;;19.39;36.49
74936;BME280;63501;55.570;37.488;2023-05-17T07:26:09;99704.06;;;19.50;35.73
74936;BME280;63501;55.570;37.488;2023-05-17T07:28:36;99715.28;;;19.50;35.09
74936;BME280;63501;55.570;37.488;2023-05-17T07:31:03;99711.47;;;19.44;34.78
74936;BME280;63501;55.570;37.488;2023-05-17T07:33:30;99714.72;;;19.42;35.26
74936;BME280;63501;55.570;37.488;2023-05-17T07:35:57;99707.63;;;19.38;35.07
74936;BME280;63501;55.570;37.488;2023-05-17T07:38:24;99703.59;;;19.39;35.36
74936;BME280;63501;55.570;37.488;2023-05-17T07:40:51;99702.28;;;19.43;34.69
74936;BME280;63501;55.570;37.488;2023-05-17T07:43:19;99701.44;;;19.59;34.64
74936;BME280;63501;55.570;37.488;2023-05-17T07:45:46;99703.47;;;19.71;34.41
74936;BME280;63501;55.570;37.488;2023-05-17T07:48:13;99704.16;;;19.75;34.72
74936;BME280;63501;55.570;37.488;2023-05-17T07:50:40;99698.75;;;19.81;34.71
74936;BME280;63501;55.570;37.488;2023-05-17T07:53:08;99690.19;;;19.97;34.03
74936;BME280;63501;55.570;37.488;2023-05-17T07:55:35;99698.75;;;20.06;34.60
74936;BME280;63501;55.570;37.488;2023-05-17T07:58:02;99695.59;;;20.17;34.96
74936;BME280;63501;55.570;37.488;2023-05-17T08:00:30;99704.44;;;20.28;34.83
74936;BME280;63501;55.570;37.488;2023-05-17T08:02:57;99712.19;;;20.24;34.04
74936;BME280;63501;55.570;37.488;2023-05-17T08:05:24;99693.00;;;20.23;34.17
74936;BME280;63501;55.570;37.488;2023-05-17T08:07:52;99693.91;;;20.32;34.71
74936;BME280;63501;55.570;37.488;2023-05-17T08:10:19;99695.88;;;20.45;34.26
74936;BME280;63501;55.570;37.488;2023-05-17T08:12:46;99711.28;;;20.53;34.17
74936;BME280;63501;55.570;37.488;2023-05-17T08:15:13;99698.69;;;20.57;34.15
74936;BME280;63501;55.570;37.488;2023-05-17T08:17:41;99695.56;;;20.55;33.60
74936;BME280;63501;55.570;37.488;2023-05-17T08:20:09;99691.28;;;20.51;34.13
74936;BME280;63501;55.570;37.488;2023-05-17T08:22:36;99697.69;;;20.51;34.00
74936;BME280;63501;55.570;37.488;2023-05-17T08:25:04;99696.34;;;20.56;34.50
74936;BME280;63501;55.570;37.488;2023-05-17T08:27:31;99683.16;;;20.66;34.39
74936;BME280;63501;55.570;37.488;2023-05-17T08:29:58;99684.69;;;20.79;33.86
74936;BME280;63501;55.570;37.488;2023-05-17T08:32:25;99697.38;;;20.84;33.85
74936;BME280;63501;55.570;37.488;2023-05-17T08:34:54;99701.94;;;20.91;33.86
74936;BME280;63501;55.570;37.488;2023-05-17T08:37:21;99689.81;;;20.94;34.20
74936;BME280;63501;55.570;37.488;2023-05-17T08:39:49;99705.44;;;20.95;33.54
74936;BME280;63501;55.570;37.488;2023-05-17T08:42:21;99690.38;;;20.89;34.31
74936;BME280;63501;55.570;37.488;2023-05-17T08:44:49;99693.31;;;20.85;34.13
74936;BME280;63501;55.570;37.488;2023-05-17T08:47:17;99676.44;;;20.85;33.74
74936;BME280;63501;55.570;37.488;2023-05-17T08:49:50;99685.16;;;21.00;33.45
74936;BME280;63501;55.570;37.488;2023-05-17T08:52:19;99681.50;;;21.12;34.03
74936;BME280;63501;55.570;37.488;2023-05-17T08:54:47;99695.16;;;21.23;33.37
74936;BME280;63501;55.570;37.488;2023-05-17T08:57:15;99666.63;;;21.86;33.36
74936;BME280;63501;55.570;37.488;2023-05-17T08:59:44;99670.25;;;22.82;32.09
74936;BME280;63501;55.570;37.488;2023-05-17T09:02:13;99676.31;;;23.63;30.94
74936;BME280;63501;55.570;37.488;2023-05-17T09:04:41;99674.69;;;24.62;29.34
74936;BME280;63501;55.570;37.488;2023-05-17T09:07:08;99658.09;;;25.76;28.54
74936;BME280;63501;55.570;37.488;2023-05-17T09:09:37;99641.78;;;26.88;27.17
74936;BME280;63501;55.570;37.488;2023-05-17T09:12:05;99630.25;;;27.75;26.74
74936;BME280;63501;55.570;37.488;2023-05-17T09:14:32;99635.59;;;28.42;26.04
74936;BME280;63501;55.570;37.488;2023-05-17T09:17:00;99635.03;;;29.09;25.55
74936;BME280;63501;55.570;37.488;2023-05-17T09:19:29;99629.38;;;29.42;24.94
74936;BME280;63501;55.570;37.488;2023-05-17T09:21:59;99632.47;;;29.50;24.73
74936;BME280;63501;55.570;37.488;2023-05-17T09:24:28;99637.16;;;29.75;24.37
74936;BME280;63501;55.570;37.488;2023-05-17T09:27:02;99624.66;;;30.01;23.92
74936;BME280;63501;55.570;37.488;2023-05-17T09:29:31;99621.00;;;30.28;23.63
74936;BME280;63501;55.570;37.488;2023-05-17T09:32:11;99628.94;;;30.52;23.06
74936;BME280;63501;55.570;37.488;2023-05-17T09:34:39;99628.19;;;30.41;23.21
74936;BME280;63501;55.570;37.488;2023-05-17T09:37:12;99613.16;;;30.46;22.53
74936;BME280;63501;55.570;37.488;2023-05-17T09:39:40;99613.03;;;30.68;22.71
74936;BME280;63501;55.570;37.488;2023-05-17T09:42:10;99604.66;;;30.87;22.54
74936;BME280;63501;55.570;37.488;2023-05-17T09:44:48;99605.25;;;31.16;22.29
74936;BME280;63501;55.570;37.488;2023-05-17T09:47:22;99608.16;;;31.46;21.96
74936;BME280;63501;55.570;37.488;2023-05-17T09:49:49;99600.72;;;31.92;21.87
74936;BME280;63501;55.570;37.488;2023-05-17T09:52:16;99593.06;;;32.24;22.18
74936;BME280;63501;55.570;37.488;2023-05-17T09:54:50;99611.78;;;32.50;21.30
74936;BME280;63501;55.570;37.488;2023-05-17T09:57:20;99600.97;;;32.61;21.16
74936;BME280;63501;55.570;37.488;2023-05-17T09:59:47;99614.03;;;32.76;20.90
74936;BME280;63501;55.570;37.488;2023-05-17T10:02:19;99603.19;;;32.69;20.35
74936;BME280;63501;55.570;37.488;2023-05-17T10:04:48;99610.31;;;32.62;20.54
74936;BME280;63501;55.570;37.488;2023-05-17T10:07:17;99598.16;;;32.75;20.56
74936;BME280;63501;55.570;37.488;2023-05-17T10:09:46;99607.16;;;32.84;20.42
74936;BME280;63501;55.570;37.488;2023-05-17T10:12:16;99588.97;;;32.44;21.00
74936;BME280;63501;55.570;37.488;2023-05-17T10:14:46;99589.34;;;32.54;20.73
74936;BME280;63501;55.570;37.488;2023-05-17T10:17:13;99582.91;;;33.04;20.61
74936;BME280;63501;55.570;37.488;2023-05-17T10:19:41;99592.94;;;33.62;20.10
74936;BME280;63501;55.570;37.488;2023-05-17T10:22:09;99582.41;;;33.97;19.98
74936;BME280;63501;55.570;37.488;2023-05-17T10:24:36;99574.22;;;34.01;19.75
74936;BME280;63501;55.570;37.488;2023-05-17T10:27:04;99594.69;;;33.78;19.98
74936;BME280;63501;55.570;37.488;2023-05-17T10:29:32;99580.31;;;33.20;20.09
74936;BME280;63501;55.570;37.488;2023-05-17T10:32:05;99583.25;;;33.01;20.50
74936;BME280;63501;55.570;37.488;2023-05-17T10:34:33;99585.50;;;32.89;20.41
74936;BME280;63501;55.570;37.488;2023-05-17T10:37:03;99597.94;;;32.54;20.39
74936;BME280;63501;55.570;37.488;2023-05-17T10:39:32;99566.84;;;32.20;20.45
74936;BME280;63501;55.570;37.488;2023-05-17T10:42:06;99584.09;;;32.39;20.37
74936;BME280;63501;55.570;37.488;2023-05-17T10:44:34;99570.22;;;32.43;20.11
74936;BME280;63501;55.570;37.488;2023-05-17T10:47:04;99572.56;;;32.45;20.20
74936;BME280;63501;55.570;37.488;2023-05-17T10:49:32;99585.19;;;32.30;20.02
74936;BME280;63501;55.570;37.488;2023-05-17T10:52:10;99582.66;;;32.02;20.18
74936;BME280;63501;55.570;37.488;2023-05-17T10:54:40;99576.66;;;32.06;20.16
74936;BME280;63501;55.570;37.488;2023-05-17T10:57:07;99565.91;;;32.55;20.16
74936;BME280;63501;55.570;37.488;2023-05-17T10:59:54;99557.41;;;33.20;19.81
74936;BME280;63501;55.570;37.488;2023-05-17T11:02:25;99554.13;;;33.74;19.73
74936;BME280;63501;55.570;37.488;2023-05-17T11:04:52;99561.44;;;34.02;19.47
74936;BME280;63501;55.570;37.488;2023-05-17T11:07:22;99565.16;;;33.83;18.81
74936;BME280;63501;55.570;37.488;2023-05-17T11:09:52;99596.34;;;33.28;19.32
74936;BME280;63501;55.570;37.488;2023-05-17T11:12:34;99564.75;;;32.64;19.46
74936;BME280;63501;55.570;37.488;2023-05-17T11:15:06;99566.28;;;32.65;19.62
74936;BME280;63501;55.570;37.488;2023-05-17T11:17:45;99564.28;;;32.60;19.65
74936;BME280;63501;55.570;37.488;2023-05-17T11:20:32;99550.81;;;32.74;19.54
74936;BME280;63501;55.570;37.488;2023-05-17T11:23:02;99557.78;;;32.97;19.58
74936;BME280;63501;55.570;37.488;2023-05-17T11:25:31;99560.44;;;33.08;19.10
74936;BME280;63501;55.570;37.488;2023-05-17T11:28:06;99560.72;;;33.24;19.48
74936;BME280;63501;55.570;37.488;2023-05-17T11:30:33;99558.63;;;33.24;19.49
74936;BME280;63501;55.570;37.488;2023-05-17T11:33:07;99572.84;;;32.60;19.58
74936;BME280;63501;55.570;37.488;2023-05-17T11:35:35;99560.28;;;32.50;19.69
74936;BME280;63501;55.570;37.488;2023-05-17T11:38:13;99542.47;;;32.57;19.67
74936;BME280;63501;55.570;37.488;2023-05-17T11:40:40;99546.75;;;32.82;19.62
74936;BME280;63501;55.570;37.488;2023-05-17T11:43:12;99536.34;;;32.66;19.32
74936;BME280;63501;55.570;37.488;2023-05-17T11:45:45;99532.63;;;32.52;19.63
74936;BME280;63501;55.570;37.488;2023-05-17T11:48:15;99529.38;;;32.80;19.37
74936;BME280;63501;55.570;37.488;2023-05-17T11:50:44;99538.50;;;32.98;19.30
74936;BME280;63501;55.570;37.488;2023-05-17T11:53:11;99524.63;;;32.83;19.59
74936;BME280;63501;55.570;37.488;2023-05-17T11:55:39;99522.13;;;33.11;19.13
74936;BME280;63501;55.570;37.488;2023-05-17T11:58:07;99519.47;;;33.59;18.77
74936;BME280;63501;55.570;37.488;2023-05-17T12:00:35;99514.09;;;33.95;19.06
74936;BME280;63501;55.570;37.488;2023-05-17T12:03:17;99501.66;;;34.40;18.40
74936;BME280;63501;55.570;37.488;2023-05-17T12:05:45;99503.06;;;34.60;18.47
74936;BME280;63501;55.570;37.488;2023-05-17T12:08:14;99508.13;;;34.67;17.84
74936;BME280;63501;55.570;37.488;2023-05-17T12:10:47;99511.75;;;34.20;18.25
74936;BME280;63501;55.570;37.488;2023-05-17T12:13:14;99511.34;;;33.63;18.21
74936;BME280;63501;55.570;37.488;2023-05-17T12:15:44;99522.41;;;33.40;18.48
74936;BME280;63501;55.570;37.488;2023-05-17T12:18:11;99508.09;;;33.40;18.35
74936;BME280;63501;55.570;37.488;2023-05-17T12:20:53;99497.44;;;33.54;18.36
74936;BME280;63501;55.570;37.488;2023-05-17T12:23:31;99499.31;;;33.91;18.09
74936;BME280;63501;55.570;37.488;2023-05-17T12:26:03;99488.47;;;34.24;18.02
74936;BME280;63501;55.570;37.488;2023-05-17T12:28:31;99497.03;;;34.37;18.17
74936;BME280;63501;55.570;37.488;2023-05-17T12:30:58;99503.16;;;34.20;18.27
74936;BME280;63501;55.570;37.488;2023-05-17T12:33:30;99491.91;;;33.69;18.05
74936;BME280;63501;55.570;37.488;2023-05-17T12:36:00;99487.78;;;33.38;18.63
74936;BME280;63501;55.570;37.488;2023-05-17T12:38:29;99480.44;;;33.42;18.46
74936;BME280;63501;55.570;37.488;2023-05-17T12:40:59;99496.09;;;33.81;18.02
74936;BME280;63501;55.570;37.488;2023-05-17T12:43:27;99481.09;;;34.15;17.97
74936;BME280;63501;55.570;37.488;2023-05-17T12:45:56;99487.88;;;34.38;17.68
74936;BME280;63501;55.570;37.488;2023-05-17T12:48:28;99479.06;;;34.36;17.82
74936;BME280;63501;55.570;37.488;2023-05-17T12:50:55;99485.09;;;33.85;17.53
74936;BME280;63501;55.570;37.488;2023-05-17T12:53:23;99482.97;;;33.73;17.79
74936;BME280;63501;55.570;37.488;2023-05-17T12:55:51;99477.34;;;33.67;17.50
74936;BME280;63501;55.570;37.488;2023-05-17T12:58:23;99462.72;;;33.57;17.73
74936;BME280;63501;55.570;37.488;2023-05-17T13:01:00;99474.88;;;33.18;17.86